sensor_id;sensor_type;location;lat;lon;timestamp;pressure;altitude;pressure_sealevel;temperature;humidity
7480;BME280;3781;42.272;22.658;2022-07-05T00:00:22;94711.94;;;20.03;100.00
7480;BME280;3781;42.272;22.658;2022-07-05T00:02:49;94714.81;;;19.87;100.00
7480;BME280;3781;42.272;22.658;2022-07-05T00:05:16;94671.13;;;19.57;100.00
7480;BME280;3781;42.272;22.658;2022-07-05T00:07:42;94717.44;;;19.87;100.00
7480;BME280;3781;42.272;22.658;2022-07-05T00:10:09;94710.28;;;19.81;100.00
7480;BME280;3781;42.272;22.658;2022-07-05T00:12:37;94725.41;;;19.93;100.00
7480;BME280;3781;42.272;22.658;2022-07-05T00:15:05;94720.97;;;19.94;100.00
7480;BME280;3781;42.272;22.658;2022-07-05T00:17:32;94701.00;;;19.85;100.00
7480;BME280;3781;42.272;22.658;2022-07-05T00:19:58;94718.56;;;19.99;100.00
7480;BME280;3781;42.272;22.658;2022-07-05T00:22:25;94717.56;;;20.00;100.00
7480;BME280;3781;42.272;22.658;2022-07-05T00:24:52;94717.31;;;19.95;100.00
7480;BME280;3781;42.272;22.658;2022-07-05T00:27:19;94722.56;;;19.95;100.00
7480;BME280;3781;42.272;22.658;2022-07-05T00:29:47;94710.00;;;19.54;100.00
7480;BME280;3781;42.272;22.658;2022-07-05T00:32:14;94714.22;;;19.34;100.00
7480;BME280;3781;42.272;22.658;2022-07-05T00:34:41;94717.78;;;18.98;100.00
7480;BME280;3781;42.272;22.658;2022-07-05T00:37:08;94710.25;;;18.80;100.00
7480;BME280;3781;42.272;22.658;2022-07-05T00:39:35;94716.22;;;18.74;100.00
7480;BME280;3781;42.272;22.658;2022-07-05T00:42:02;94718.13;;;18.95;100.00
7480;BME280;3781;42.272;22.658;2022-07-05T00:44:30;94715.22;;;19.19;100.00
7480;BME280;3781;42.272;22.658;2022-07-05T00:46:59;94717.47;;;19.36;100.00
7480;BME280;3781;42.272;22.658;2022-07-05T00:49:26;94718.16;;;19.60;100.00
7480;BME280;3781;42.272;22.658;2022-07-05T00:51:53;94703.63;;;19.64;100.00
7480;BME280;3781;42.272;22.658;2022-07-05T00:54:20;94709.09;;;19.47;100.00
7480;BME280;3781;42.272;22.658;2022-07-05T00:56:47;94715.03;;;19.71;100.00
7480;BME280;3781;42.272;22.658;2022-07-05T00:59:14;94681.91;;;19.62;100.00
7480;BME280;3781;42.272;22.658;2022-07-05T01:01:41;94708.63;;;19.80;100.00
7480;BME280;3781;42.272;22.658;2022-07-05T01:04:10;94706.25;;;19.85;100.00
7480;BME280;3781;42.272;22.658;2022-07-05T01:06:38;94674.25;;;19.67;100.00
7480;BME280;3781;42.272;22.658;2022-07-05T01:09:07;94697.47;;;19.78;100.00
7480;BME280;3781;42.272;22.658;2022-07-05T01:11:35;94704.75;;;19.76;100.00
7480;BME280;3781;42.272;22.658;2022-07-05T01:14:02;94702.88;;;19.70;100.00
7480;BME280;3781;42.272;22.658;2022-07-05T01:16:29;94700.38;;;19.62;100.00
7480;BME280;3781;42.272;22.658;2022-07-05T01:18:56;94677.97;;;19.36;100.00
7480;BME280;3781;42.272;22.658;2022-07-05T01:21:25;94700.09;;;19.57;100.00
7480;BME280;3781;42.272;22.658;2022-07-05T01:23:54;94696.28;;;19.59;100.00
7480;BME280;3781;42.272;22.658;2022-07-05T01:26:21;94675.34;;;19.36;100.00
7480;BME280;3781;42.272;22.658;2022-07-05T01:28:48;94703.84;;;19.47;100.00
7480;BME280;3781;42.272;22.658;2022-07-05T01:31:15;94708.22;;;19.40;100.00
7480;BME280;3781;42.272;22.658;2022-07-05T01:33:42;94716.66;;;19.36;100.00
7480;BME280;3781;42.272;22.658;2022-07-05T01:36:10;94718.69;;;19.05;100.00
7480;BME280;3781;42.272;22.658;2022-07-05T01:38:38;94717.84;;;18.75;100.00
7480;BME280;3781;42.272;22.658;2022-07-05T01:41:08;94726.81;;;18.51;100.00
7480;BME280;3781;42.272;22.658;2022-07-05T01:43:35;94723.31;;;18.36;100.00
7480;BME280;3781;42.272;22.658;2022-07-05T01:46:04;94714.34;;;18.31;100.00
7480;BME280;3781;42.272;22.658;2022-07-05T01:48:32;94710.97;;;18.22;100.00
7480;BME280;3781;42.272;22.658;2022-07-05T01:51:03;94718.78;;;18.30;100.00
7480;BME280;3781;42.272;22.658;2022-07-05T01:53:32;94725.56;;;18.62;100.00
7480;BME280;3781;42.272;22.658;2022-07-05T01:55:59;94719.41;;;18.69;100.00
7480;BME280;3781;42.272;22.658;2022-07-05T01:58:29;94731.81;;;18.90;100.00
7480;BME280;3781;42.272;22.658;2022-07-05T02:00:58;94726.22;;;18.93;100.00
7480;BME280;3781;42.272;22.658;2022-07-05T02:03:26;94723.69;;;18.85;100.00
7480;BME280;3781;42.272;22.658;2022-07-05T02:05:53;94725.69;;;18.83;100.00
7480;BME280;3781;42.272;22.658;2022-07-05T02:08:21;94715.94;;;18.83;100.00
7480;BME280;3781;42.272;22.658;2022-07-05T02:10:48;94720.59;;;18.96;100.00
7480;BME280;3781;42.272;22.658;2022-07-05T02:13:15;94728.84;;;19.08;100.00
7480;BME280;3781;42.272;22.658;2022-07-05T02:15:43;94714.41;;;18.60;100.00
7480;BME280;3781;42.272;22.658;2022-07-05T02:18:10;94687.03;;;17.94;100.00
7480;BME280;3781;42.272;22.658;2022-07-05T02:20:38;94666.88;;;17.72;100.00
7480;BME280;3781;42.272;22.658;2022-07-05T02:23:05;94689.31;;;17.97;100.00
7480;BME280;3781;42.272;22.658;2022-07-05T02:25:32;94696.69;;;18.17;100.00
7480;BME280;3781;42.272;22.658;2022-07-05T02:27:59;94702.53;;;18.27;100.00
7480;BME280;3781;42.272;22.658;2022-07-05T02:30:26;94706.06;;;18.34;100.00
7480;BME280;3781;42.272;22.658;2022-07-05T02:32:54;94706.03;;;18.42;100.00
7480;BME280;3781;42.272;22.658;2022-07-05T02:35:21;94710.44;;;18.41;100.00
7480;BME280;3781;42.272;22.658;2022-07-05T02:37:48;94705.44;;;18.32;100.00
7480;BME280;3781;42.272;22.658;2022-07-05T02:40:14;94710.44;;;18.41;100.00
7480;BME280;3781;42.272;22.658;2022-07-05T02:42:41;94717.13;;;18.52;100.00
7480;BME280;3781;42.272;22.658;2022-07-05T02:45:09;94720.03;;;18.57;100.00
7480;BME280;3781;42.272;22.658;2022-07-05T02:47:36;94725.00;;;18.52;100.00
7480;BME280;3781;42.272;22.658;2022-07-05T02:50:06;94719.56;;;18.53;100.00
7480;BME280;3781;42.272;22.658;2022-07-05T02:52:33;94666.38;;;17.91;100.00
7480;BME280;3781;42.272;22.658;2022-07-05T02:55:00;94726.25;;;18.19;100.00
7480;BME280;3781;42.272;22.658;2022-07-05T02:57:27;94721.81;;;17.96;100.00
7480;BME280;3781;42.272;22.658;2022-07-05T02:59:54;94725.34;;;18.12;100.00
7480;BME280;3781;42.272;22.658;2022-07-05T03:02:21;94726.75;;;17.99;100.00
7480;BME280;3781;42.272;22.658;2022-07-05T03:04:48;94718.84;;;17.99;100.00
7480;BME280;3781;42.272;22.658;2022-07-05T03:07:16;94716.72;;;17.80;100.00
7480;BME280;3781;42.272;22.658;2022-07-05T03:09:43;94717.06;;;17.77;100.00
7480;BME280;3781;42.272;22.658;2022-07-05T03:12:10;94724.41;;;17.59;100.00
7480;BME280;3781;42.272;22.658;2022-07-05T03:14:37;94724.78;;;17.48;100.00
7480;BME280;3781;42.272;22.658;2022-07-05T03:17:04;94722.13;;;17.56;100.00
7480;BME280;3781;42.272;22.658;2022-07-05T03:19:30;94721.16;;;17.57;100.00
7480;BME280;3781;42.272;22.658;2022-07-05T03:21:57;94710.88;;;17.70;100.00
7480;BME280;3781;42.272;22.658;2022-07-05T03:24:26;94710.28;;;17.83;100.00
7480;BME280;3781;42.272;22.658;2022-07-05T03:26:52;94723.47;;;17.97;100.00
7480;BME280;3781;42.272;22.658;2022-07-05T03:29:19;94704.78;;;17.92;100.00
7480;BME280;3781;42.272;22.658;2022-07-05T03:31:46;94602.81;;;17.28;100.00
7480;BME280;3781;42.272;22.658;2022-07-05T03:34:13;94717.28;;;18.13;100.00
7480;BME280;3781;42.272;22.658;2022-07-05T03:36:40;94716.47;;;18.13;100.00
7480;BME280;3781;42.272;22.658;2022-07-05T03:39:06;94716.78;;;18.32;100.00
7480;BME280;3781;42.272;22.658;2022-07-05T03:41:35;94716.06;;;18.38;100.00
7480;BME280;3781;42.272;22.658;2022-07-05T03:44:01;94717.00;;;18.45;100.00
7480;BME280;3781;42.272;22.658;2022-07-05T03:46:28;94724.03;;;18.53;100.00
7480;BME280;3781;42.272;22.658;2022-07-05T03:48:55;94718.13;;;18.65;100.00
7480;BME280;3781;42.272;22.658;2022-07-05T03:51:22;94728.38;;;18.75;100.00
7480;BME280;3781;42.272;22.658;2022-07-05T03:53:48;94726.38;;;18.77;100.00
7480;BME280;3781;42.272;22.658;2022-07-05T03:56:15;94731.38;;;18.87;100.00
7480;BME280;3781;42.272;22.658;2022-07-05T03:58:47;94733.47;;;18.91;100.00
7480;BME280;3781;42.272;22.658;2022-07-05T04:01:13;94739.47;;;18.85;100.00
7480;BME280;3781;42.272;22.658;2022-07-05T04:03:40;94715.22;;;18.75;100.00
7480;BME280;3781;42.272;22.658;2022-07-05T04:06:08;94744.53;;;19.01;100.00
7480;BME280;3781;42.272;22.658;2022-07-05T04:08:35;94739.28;;;19.01;100.00
7480;BME280;3781;42.272;22.658;2022-07-05T04:11:02;94745.97;;;19.18;100.00
7480;BME280;3781;42.272;22.658;2022-07-05T04:13:29;94713.41;;;19.19;100.00
7480;BME280;3781;42.272;22.658;2022-07-05T04:15:57;94743.72;;;19.44;100.00
7480;BME280;3781;42.272;22.658;2022-07-05T04:18:24;94746.50;;;19.58;100.00
7480;BME280;3781;42.272;22.658;2022-07-05T04:20:50;94736.50;;;19.68;100.00
7480;BME280;3781;42.272;22.658;2022-07-05T04:23:17;94735.38;;;19.77;100.00
7480;BME280;3781;42.272;22.658;2022-07-05T04:25:44;94736.16;;;19.92;100.00
7480;BME280;3781;42.272;22.658;2022-07-05T04:28:11;94733.66;;;20.05;100.00
7480;BME280;3781;42.272;22.658;2022-07-05T04:30:37;94710.91;;;20.04;100.00
7480;BME280;3781;42.272;22.658;2022-07-05T04:33:06;94728.63;;;20.31;100.00
7480;BME280;3781;42.272;22.658;2022-07-05T04:35:32;94722.59;;;20.37;100.00
7480;BME280;3781;42.272;22.658;2022-07-05T04:37:59;94705.13;;;20.36;100.00
7480;BME280;3781;42.272;22.658;2022-07-05T04:40:26;94710.78;;;20.61;100.00
7480;BME280;3781;42.272;22.658;2022-07-05T04:42:53;94718.06;;;20.86;100.00
7480;BME280;3781;42.272;22.658;2022-07-05T04:45:20;94723.91;;;21.03;100.00
7480;BME280;3781;42.272;22.658;2022-07-05T04:47:46;94722.44;;;21.35;100.00
7480;BME280;3781;42.272;22.658;2022-07-05T04:50:15;94727.81;;;21.61;100.00
7480;BME280;3781;42.272;22.658;2022-07-05T04:52:41;94733.44;;;21.92;100.00
7480;BME280;3781;42.272;22.658;2022-07-05T04:55:09;94632.69;;;21.74;100.00
7480;BME280;3781;42.272;22.658;2022-07-05T04:57:37;94720.09;;;22.72;96.95
7480;BME280;3781;42.272;22.658;2022-07-05T05:00:15;94729.00;;;23.74;88.71
7480;BME280;3781;42.272;22.658;2022-07-05T05:02:45;94748.41;;;24.44;79.65
7480;BME280;3781;42.272;22.658;2022-07-05T05:05:12;94751.69;;;25.38;73.94
7480;BME280;3781;42.272;22.658;2022-07-05T05:07:43;94735.94;;;25.73;69.94
7480;BME280;3781;42.272;22.658;2022-07-05T05:10:11;94739.66;;;26.01;65.34
7480;BME280;3781;42.272;22.658;2022-07-05T05:12:38;94746.22;;;25.69;66.97
7480;BME280;3781;42.272;22.658;2022-07-05T05:15:06;94715.56;;;25.49;67.11
7480;BME280;3781;42.272;22.658;2022-07-05T05:17:36;94764.56;;;25.59;68.61
7480;BME280;3781;42.272;22.658;2022-07-05T05:20:05;94759.69;;;25.13;70.93
7480;BME280;3781;42.272;22.658;2022-07-05T05:22:32;94764.72;;;24.72;72.58
7480;BME280;3781;42.272;22.658;2022-07-05T05:25:00;94760.03;;;24.43;74.51
7480;BME280;3781;42.272;22.658;2022-07-05T05:27:27;94772.00;;;24.21;75.43
7480;BME280;3781;42.272;22.658;2022-07-05T05:29:54;94764.66;;;23.78;80.76
7480;BME280;3781;42.272;22.658;2022-07-05T05:32:21;94770.69;;;23.48;83.48
7480;BME280;3781;42.272;22.658;2022-07-05T05:34:51;94772.13;;;23.50;82.03
7480;BME280;3781;42.272;22.658;2022-07-05T05:54:02;94777.09;;;23.01;85.58
7480;BME280;3781;42.272;22.658;2022-07-05T05:56:28;94758.94;;;23.04;87.89
7480;BME280;3781;42.272;22.658;2022-07-05T05:58:55;94775.63;;;23.31;87.90
7480;BME280;3781;42.272;22.658;2022-07-05T06:01:22;94776.34;;;23.64;84.63
7480;BME280;3781;42.272;22.658;2022-07-05T06:03:49;94782.63;;;23.83;87.40
7480;BME280;3781;42.272;22.658;2022-07-05T06:06:16;94771.44;;;23.74;81.27
7480;BME280;3781;42.272;22.658;2022-07-05T06:08:42;94779.25;;;24.01;78.86
7480;BME280;3781;42.272;22.658;2022-07-05T06:11:11;94768.47;;;23.95;76.10
7480;BME280;3781;42.272;22.658;2022-07-05T06:13:38;94767.97;;;24.18;78.52
7480;BME280;3781;42.272;22.658;2022-07-05T06:16:06;94761.31;;;24.34;82.17
7480;BME280;3781;42.272;22.658;2022-07-05T06:18:33;94763.28;;;24.45;79.61
7480;BME280;3781;42.272;22.658;2022-07-05T06:21:00;94766.03;;;24.63;81.28
7480;BME280;3781;42.272;22.658;2022-07-05T06:23:28;94766.41;;;24.66;79.48
7480;BME280;3781;42.272;22.658;2022-07-05T06:25:54;94758.75;;;24.83;80.01
7480;BME280;3781;42.272;22.658;2022-07-05T06:28:23;94755.16;;;24.96;75.48
7480;BME280;3781;42.272;22.658;2022-07-05T06:30:50;94662.38;;;24.45;77.89
7480;BME280;3781;42.272;22.658;2022-07-05T06:33:18;94738.72;;;25.05;79.96
7480;BME280;3781;42.272;22.658;2022-07-05T06:35:45;94749.50;;;25.28;79.59
7480;BME280;3781;42.272;22.658;2022-07-05T06:38:11;94761.00;;;25.47;72.77
7480;BME280;3781;42.272;22.658;2022-07-05T06:40:39;94761.81;;;25.66;73.09
7480;BME280;3781;42.272;22.658;2022-07-05T06:43:09;94737.28;;;25.64;72.88
7480;BME280;3781;42.272;22.658;2022-07-05T06:45:38;94768.66;;;25.73;74.14
7480;BME280;3781;42.272;22.658;2022-07-05T06:48:07;94751.63;;;25.63;72.20
7480;BME280;3781;42.272;22.658;2022-07-05T06:50:35;94759.00;;;25.61;73.31
7480;BME280;3781;42.272;22.658;2022-07-05T06:53:02;94761.34;;;25.69;72.29
7480;BME280;3781;42.272;22.658;2022-07-05T06:55:29;94772.31;;;25.79;68.56
7480;BME280;3781;42.272;22.658;2022-07-05T06:57:57;94760.59;;;25.98;74.47
7480;BME280;3781;42.272;22.658;2022-07-05T07:00:25;94750.94;;;26.33;69.24
7480;BME280;3781;42.272;22.658;2022-07-05T07:02:53;94757.28;;;26.32;66.93
7480;BME280;3781;42.272;22.658;2022-07-05T07:05:21;94728.09;;;26.26;68.29
7480;BME280;3781;42.272;22.658;2022-07-05T07:07:48;94760.13;;;26.60;67.65
7480;BME280;3781;42.272;22.658;2022-07-05T07:10:32;94760.84;;;26.67;67.66
7480;BME280;3781;42.272;22.658;2022-07-05T07:13:00;94761.47;;;26.92;67.40
7480;BME280;3781;42.272;22.658;2022-07-05T07:15:30;94766.13;;;27.09;65.48
7480;BME280;3781;42.272;22.658;2022-07-05T07:17:58;94628.06;;;26.18;61.47
7480;BME280;3781;42.272;22.658;2022-07-05T07:20:25;94762.66;;;27.08;63.07
7480;BME280;3781;42.272;22.658;2022-07-05T07:22:52;94764.28;;;27.32;58.64
7480;BME280;3781;42.272;22.658;2022-07-05T07:25:20;94769.06;;;27.42;57.85
7480;BME280;3781;42.272;22.658;2022-07-05T07:27:51;94763.00;;;27.70;58.68
7480;BME280;3781;42.272;22.658;2022-07-05T07:30:20;94772.19;;;27.62;52.74
7480;BME280;3781;42.272;22.658;2022-07-05T07:32:47;94727.72;;;27.56;60.45
7480;BME280;3781;42.272;22.658;2022-07-05T07:35:15;94765.06;;;27.79;57.26
7480;BME280;3781;42.272;22.658;2022-07-05T07:37:42;94766.84;;;28.13;53.22
7480;BME280;3781;42.272;22.658;2022-07-05T07:40:10;94775.47;;;28.32;52.19
7480;BME280;3781;42.272;22.658;2022-07-05T07:42:37;94767.25;;;28.50;52.49
7480;BME280;3781;42.272;22.658;2022-07-05T07:45:04;94757.44;;;28.39;46.58
7480;BME280;3781;42.272;22.658;2022-07-05T07:47:31;94759.69;;;28.59;50.18
7480;BME280;3781;42.272;22.658;2022-07-05T07:49:59;94761.97;;;28.83;51.05
7480;BME280;3781;42.272;22.658;2022-07-05T07:52:27;94764.63;;;28.67;48.56
7480;BME280;3781;42.272;22.658;2022-07-05T07:54:55;94753.03;;;28.61;49.15
7480;BME280;3781;42.272;22.658;2022-07-05T07:57:22;94744.72;;;28.74;48.82
7480;BME280;3781;42.272;22.658;2022-07-05T07:59:49;94732.31;;;28.85;44.01
7480;BME280;3781;42.272;22.658;2022-07-05T08:02:16;94749.34;;;29.12;49.35
7480;BME280;3781;42.272;22.658;2022-07-05T08:04:46;94728.50;;;29.14;47.79
7480;BME280;3781;42.272;22.658;2022-07-05T08:07:13;94753.53;;;29.41;46.65
7480;BME280;3781;42.272;22.658;2022-07-05T08:09:41;94762.56;;;29.57;44.65
7480;BME280;3781;42.272;22.658;2022-07-05T08:12:08;94762.06;;;29.76;45.32
7480;BME280;3781;42.272;22.658;2022-07-05T08:14:35;94760.31;;;30.09;44.36
7480;BME280;3781;42.272;22.658;2022-07-05T08:17:02;94753.38;;;30.13;42.82
7480;BME280;3781;42.272;22.658;2022-07-05T08:19:33;94736.47;;;29.86;44.70
7480;BME280;3781;42.272;22.658;2022-07-05T08:22:17;94742.00;;;30.01;44.15
7480;BME280;3781;42.272;22.658;2022-07-05T08:24:46;94739.69;;;30.09;44.63
7480;BME280;3781;42.272;22.658;2022-07-05T08:27:13;94752.41;;;30.19;43.33
7480;BME280;3781;42.272;22.658;2022-07-05T08:29:39;94749.06;;;30.55;44.60
7480;BME280;3781;42.272;22.658;2022-07-05T08:32:07;94728.78;;;30.16;43.03
7480;BME280;3781;42.272;22.658;2022-07-05T08:34:34;94749.00;;;30.28;41.43
7480;BME280;3781;42.272;22.658;2022-07-05T08:37:01;94719.41;;;30.40;45.18
7480;BME280;3781;42.272;22.658;2022-07-05T08:39:28;94744.44;;;30.82;41.47
7480;BME280;3781;42.272;22.658;2022-07-05T08:41:57;94743.47;;;30.35;43.32
7480;BME280;3781;42.272;22.658;2022-07-05T08:44:27;94735.84;;;30.80;43.85
7480;BME280;3781;42.272;22.658;2022-07-05T08:46:56;94710.63;;;31.08;43.16
7480;BME280;3781;42.272;22.658;2022-07-05T08:49:25;94739.59;;;31.43;43.37
7480;BME280;3781;42.272;22.658;2022-07-05T08:51:52;94729.50;;;31.60;42.03
7480;BME280;3781;42.272;22.658;2022-07-05T08:54:21;94718.81;;;31.80;42.30
7480;BME280;3781;42.272;22.658;2022-07-05T08:56:48;94683.09;;;31.74;42.83
7480;BME280;3781;42.272;22.658;2022-07-05T08:59:17;94726.59;;;32.38;40.50
7480;BME280;3781;42.272;22.658;2022-07-05T09:01:45;94721.78;;;32.76;39.23
7480;BME280;3781;42.272;22.658;2022-07-05T09:04:13;94719.53;;;33.88;37.33
7480;BME280;3781;42.272;22.658;2022-07-05T09:06:40;94610.28;;;33.47;35.53
7480;BME280;3781;42.272;22.658;2022-07-05T09:09:07;94720.09;;;34.83;34.99
7480;BME280;3781;42.272;22.658;2022-07-05T09:11:36;94725.84;;;35.68;33.99
7480;BME280;3781;42.272;22.658;2022-07-05T09:14:05;94718.06;;;36.51;34.73
7480;BME280;3781;42.272;22.658;2022-07-05T09:16:34;94723.75;;;37.05;33.27
7480;BME280;3781;42.272;22.658;2022-07-05T09:19:09;94719.16;;;37.38;32.46
7480;BME280;3781;42.272;22.658;2022-07-05T09:21:36;94709.19;;;37.93;31.10
7480;BME280;3781;42.272;22.658;2022-07-05T09:24:04;94710.88;;;38.16;27.95
7480;BME280;3781;42.272;22.658;2022-07-05T09:26:33;94645.41;;;37.82;30.40
7480;BME280;3781;42.272;22.658;2022-07-05T09:29:01;94695.34;;;38.57;29.95
7480;BME280;3781;42.272;22.658;2022-07-05T09:31:30;94695.44;;;38.88;29.08
7480;BME280;3781;42.272;22.658;2022-07-05T09:34:05;94678.53;;;38.69;28.48
7480;BME280;3781;42.272;22.658;2022-07-05T09:36:53;94679.63;;;39.12;28.91
7480;BME280;3781;42.272;22.658;2022-07-05T09:39:37;94670.94;;;36.70;31.29
7480;BME280;3781;42.272;22.658;2022-07-05T09:42:13;94650.06;;;36.89;29.83
7480;BME280;3781;42.272;22.658;2022-07-05T09:44:42;94675.53;;;36.14;30.80
7480;BME280;3781;42.272;22.658;2022-07-05T09:47:11;94665.75;;;36.92;32.03
7480;BME280;3781;42.272;22.658;2022-07-05T09:49:41;94679.38;;;36.50;29.03
7480;BME280;3781;42.272;22.658;2022-07-05T09:52:08;94677.16;;;35.15;30.95
7480;BME280;3781;42.272;22.658;2022-07-05T09:54:35;94668.09;;;35.82;33.10
7480;BME280;3781;42.272;22.658;2022-07-05T09:57:02;94657.72;;;36.50;32.33
7480;BME280;3781;42.272;22.658;2022-07-05T09:59:29;94663.47;;;37.45;32.33
7480;BME280;3781;42.272;22.658;2022-07-05T10:01:56;94664.88;;;37.97;31.15
7480;BME280;3781;42.272;22.658;2022-07-05T10:04:23;94637.84;;;38.77;30.33
7480;BME280;3781;42.272;22.658;2022-07-05T10:06:51;94649.69;;;39.03;29.03
7480;BME280;3781;42.272;22.658;2022-07-05T10:09:19;94666.16;;;39.29;28.46
7480;BME280;3781;42.272;22.658;2022-07-05T10:11:46;94662.75;;;38.57;29.58
7480;BME280;3781;42.272;22.658;2022-07-05T10:14:18;94653.66;;;37.90;30.27
7480;BME280;3781;42.272;22.658;2022-07-05T10:16:47;94604.56;;;38.14;28.65
7480;BME280;3781;42.272;22.658;2022-07-05T10:19:18;94656.44;;;38.12;28.54
7480;BME280;3781;42.272;22.658;2022-07-05T10:21:46;94617.22;;;36.45;31.50
7480;BME280;3781;42.272;22.658;2022-07-05T10:24:16;94649.81;;;36.35;30.28
7480;BME280;3781;42.272;22.658;2022-07-05T10:26:44;94650.91;;;36.34;28.30
7480;BME280;3781;42.272;22.658;2022-07-05T10:29:13;94622.84;;;36.49;29.93
7480;BME280;3781;42.272;22.658;2022-07-05T10:31:41;94515.84;;;36.05;29.32
7480;BME280;3781;42.272;22.658;2022-07-05T10:34:09;94644.72;;;37.03;29.33
7480;BME280;3781;42.272;22.658;2022-07-05T10:36:38;94622.06;;;37.13;28.22
7480;BME280;3781;42.272;22.658;2022-07-05T10:39:06;94631.72;;;37.32;28.35
7480;BME280;3781;42.272;22.658;2022-07-05T10:41:35;94622.91;;;37.40;27.75
7480;BME280;3781;42.272;22.658;2022-07-05T10:44:04;94624.13;;;38.24;25.20
7480;BME280;3781;42.272;22.658;2022-07-05T10:46:38;94611.66;;;38.59;26.83
7480;BME280;3781;42.272;22.658;2022-07-05T10:49:11;94560.97;;;38.10;24.72
7480;BME280;3781;42.272;22.658;2022-07-05T10:51:38;94603.91;;;37.95;25.33
7480;BME280;3781;42.272;22.658;2022-07-05T10:54:06;94609.25;;;38.00;25.88
7480;BME280;3781;42.272;22.658;2022-07-05T10:56:32;94615.88;;;37.66;24.87
7480;BME280;3781;42.272;22.658;2022-07-05T10:59:10;94614.72;;;37.27;28.30
7480;BME280;3781;42.272;22.658;2022-07-05T11:01:41;94616.91;;;37.84;26.60
7480;BME280;3781;42.272;22.658;2022-07-05T11:04:28;94608.25;;;37.68;27.37
7480;BME280;3781;42.272;22.658;2022-07-05T11:07:00;94597.56;;;37.99;24.82
7480;BME280;3781;42.272;22.658;2022-07-05T11:09:27;94614.88;;;39.05;25.97
7480;BME280;3781;42.272;22.658;2022-07-05T11:12:08;94612.13;;;40.23;26.18
7480;BME280;3781;42.272;22.658;2022-07-05T11:14:45;94618.41;;;40.41;24.99
7480;BME280;3781;42.272;22.658;2022-07-05T11:17:23;94610.88;;;41.36;24.58
7480;BME280;3781;42.272;22.658;2022-07-05T11:23:00;94593.94;;;39.06;22.82
7480;BME280;3781;42.272;22.658;2022-07-05T11:25:29;94603.97;;;38.75;21.58
7480;BME280;3781;42.272;22.658;2022-07-05T11:28:04;94560.19;;;39.07;24.35
7480;BME280;3781;42.272;22.658;2022-07-05T11:30:58;94583.59;;;40.12;21.53
7480;BME280;3781;42.272;22.658;2022-07-05T11:33:39;94564.88;;;41.63;24.10
7480;BME280;3781;42.272;22.658;2022-07-05T11:36:20;94582.13;;;42.05;22.18
7480;BME280;3781;42.272;22.658;2022-07-05T11:39:09;94576.06;;;40.01;22.65
7480;BME280;3781;42.272;22.658;2022-07-05T11:41:37;94552.19;;;38.49;23.64
7480;BME280;3781;42.272;22.658;2022-07-05T11:44:05;94551.06;;;39.03;27.87
7480;BME280;3781;42.272;22.658;2022-07-05T11:46:34;94559.09;;;39.39;26.08
7480;BME280;3781;42.272;22.658;2022-07-05T11:49:01;94556.47;;;39.64;25.71
7480;BME280;3781;42.272;22.658;2022-07-05T11:51:27;94555.34;;;39.74;24.10
7480;BME280;3781;42.272;22.658;2022-07-05T11:53:54;94547.16;;;41.02;23.79
7480;BME280;3781;42.272;22.658;2022-07-05T11:56:21;94536.66;;;40.75;24.90
7480;BME280;3781;42.272;22.658;2022-07-05T11:58:49;94511.22;;;40.20;24.93
7480;BME280;3781;42.272;22.658;2022-07-05T12:01:15;94505.09;;;41.20;23.75
7480;BME280;3781;42.272;22.658;2022-07-05T12:03:54;94541.22;;;41.47;24.16
7480;BME280;3781;42.272;22.658;2022-07-05T12:06:22;94536.81;;;41.33;24.06
7480;BME280;3781;42.272;22.658;2022-07-05T12:09:05;94550.78;;;40.51;24.52
7480;BME280;3781;42.272;22.658;2022-07-05T12:11:32;94532.50;;;38.21;25.88
7480;BME280;3781;42.272;22.658;2022-07-05T12:14:22;94533.97;;;37.56;28.78
7480;BME280;3781;42.272;22.658;2022-07-05T12:16:50;94547.56;;;36.18;31.09
7480;BME280;3781;42.272;22.658;2022-07-05T12:19:37;94536.06;;;35.71;33.38
7480;BME280;3781;42.272;22.658;2022-07-05T12:22:04;94508.13;;;36.31;31.57
7480;BME280;3781;42.272;22.658;2022-07-05T12:24:31;94529.22;;;37.61;30.22
7480;BME280;3781;42.272;22.658;2022-07-05T12:26:57;94526.66;;;37.92;30.75
7480;BME280;3781;42.272;22.658;2022-07-05T12:29:24;94515.03;;;36.37;31.98
7480;BME280;3781;42.272;22.658;2022-07-05T12:31:58;94461.16;;;34.92;34.48
7480;BME280;3781;42.272;22.658;2022-07-05T12:34:26;94519.44;;;34.35;35.40
7480;BME280;3781;42.272;22.658;2022-07-05T12:36:55;94498.97;;;33.62;37.46
7480;BME280;3781;42.272;22.658;2022-07-05T12:39:22;94511.88;;;32.96;38.60
7480;BME280;3781;42.272;22.658;2022-07-05T12:41:49;94506.09;;;32.58;39.86
7480;BME280;3781;42.272;22.658;2022-07-05T12:44:18;94505.53;;;31.91;42.34
7480;BME280;3781;42.272;22.658;2022-07-05T12:46:45;94503.31;;;31.38;43.50
7480;BME280;3781;42.272;22.658;2022-07-05T12:49:14;94498.25;;;30.79;44.60
7480;BME280;3781;42.272;22.658;2022-07-05T12:51:43;94493.75;;;30.43;44.93
7480;BME280;3781;42.272;22.658;2022-07-05T12:54:20;94467.31;;;29.83;45.41
7480;BME280;3781;42.272;22.658;2022-07-05T12:57:05;94487.75;;;29.94;46.99
7480;BME280;3781;42.272;22.658;2022-07-05T13:00:03;94488.91;;;30.03;46.44
7480;BME280;3781;42.272;22.658;2022-07-05T13:02:34;94483.75;;;29.97;47.35
7480;BME280;3781;42.272;22.658;2022-07-05T13:05:02;94483.22;;;30.00;48.66
7480;BME280;3781;42.272;22.658;2022-07-05T13:07:28;94492.88;;;30.84;46.27
7480;BME280;3781;42.272;22.658;2022-07-05T13:10:12;94494.25;;;32.34;42.63
7480;BME280;3781;42.272;22.658;2022-07-05T13:12:40;94496.34;;;33.90;40.59
7480;BME280;3781;42.272;22.658;2022-07-05T13:15:07;94490.28;;;35.37;37.36
7480;BME280;3781;42.272;22.658;2022-07-05T13:17:34;94440.38;;;35.72;34.74
7480;BME280;3781;42.272;22.658;2022-07-05T13:20:01;94497.00;;;36.78;32.35
7480;BME280;3781;42.272;22.658;2022-07-05T13:22:29;94485.78;;;36.71;31.86
7480;BME280;3781;42.272;22.658;2022-07-05T13:24:57;94395.75;;;36.93;32.25
7480;BME280;3781;42.272;22.658;2022-07-05T13:27:24;94491.16;;;38.24;28.95
7480;BME280;3781;42.272;22.658;2022-07-05T13:29:51;94464.25;;;38.89;30.04
7480;BME280;3781;42.272;22.658;2022-07-05T13:32:17;94482.91;;;39.78;25.20
7480;BME280;3781;42.272;22.658;2022-07-05T13:34:47;94478.03;;;40.69;24.68